Terminal Aerodrome Forecast
Issued by NWS

Home | Current Version | Previous Version | Text Only | Print | Product List | Glossary On
Versions: 1 2 3 4 5 6 7 8 9 10 11 12 13 14 15 16 17 18 19 20 21 22 23 24 25
000
FTUS43 KAPX 152340
TAFMBL
TAF
KMBL 152340Z 1600/1624 27010G19KT P6SM SCT020 BKN035
      TEMPO 1600/1604 6SM -SHSN BKN020
     FM160600 30009KT P6SM BKN040
     FM160900 33006KT P6SM -SHSN SCT020 OVC050
     FM161300 05005KT P6SM -SHSN OVC030
     FM161400 08006KT P6SM -SHSN OVC030
     FM162300 11006KT P6SM OVC015=

USA.gov is the U.S. government's official web portal to all federal, state and local government web resources and services.